Time;durP1;ratioP1;P1;durP2;ratioP2;P2;SDS_P1;SDS_P2;PMS_P1;PMS_P2;Temp;Humidity;BMP_temperature;BMP_pressure;BME280_temperature;BME280_humidity;BME280_pressure;Samples;Min_cycle;Max_cycle;Signal;HPM_P1;HPM_P2
2023/03/11 00:02:15;;;;;;;7.07;2.70;;;8.80;99.90;;;;;;5052130;28;20025;-91
2023/03/11 00:04:42;;;;;;;6.20;2.65;;;8.70;99.90;;;;;;5052495;28;20021;-91
2023/03/11 00:07:09;;;;;;;6.03;2.92;;;8.60;99.90;;;;;;5052562;28;20045;-91
2023/03/11 00:09:34;;;;;;;7.32;2.67;;;8.60;99.90;;;;;;5052405;28;20037;-91
2023/03/11 00:12:01;;;;;;;7.78;3.13;;;8.60;99.90;;;;;;5052153;27;20031;-91
2023/03/11 00:14:27;;;;;;;6.78;3.08;;;8.50;99.90;;;;;;5052209;28;20503;-91
2023/03/11 00:16:52;;;;;;;5.47;2.92;;;8.70;99.90;;;;;;5051774;28;20069;-91
2023/03/11 00:19:18;;;;;;;7.30;3.38;;;8.70;99.90;;;;;;5052321;28;20104;-91
2023/03/11 00:21:44;;;;;;;5.13;3.00;;;8.80;99.90;;;;;;5052220;28;20025;-91
2023/03/11 00:24:09;;;;;;;6.25;3.67;;;8.80;99.90;;;;;;5052148;28;20049;-91
2023/03/11 00:26:35;;;;;;;5.57;3.53;;;8.70;99.90;;;;;;5052118;28;20024;-92
2023/03/11 00:29:00;;;;;;;9.90;3.83;;;8.80;99.90;;;;;;5052128;28;20108;-91
2023/03/11 00:31:26;;;;;;;8.20;3.60;;;8.80;99.90;;;;;;5051784;28;20032;-92
2023/03/11 00:33:52;;;;;;;8.90;3.63;;;8.80;99.90;;;;;;5052089;28;20025;-91
2023/03/11 00:36:30;;;;;;;7.15;3.28;;;8.90;99.90;;;;;;5052001;28;20036;-91
2023/03/11 00:38:57;;;;;;;7.47;3.38;;;8.90;99.90;;;;;;5051966;28;20132;-91
2023/03/11 00:41:22;;;;;;;8.00;3.83;;;8.90;99.90;;;;;;5051857;28;20028;-91
2023/03/11 00:43:48;;;;;;;7.13;4.30;;;8.80;99.90;;;;;;5051862;28;20112;-91
2023/03/11 00:46:14;;;;;;;6.43;3.67;;;8.70;99.90;;;;;;5051653;28;20068;-91
2023/03/11 00:48:39;;;;;;;5.25;3.50;;;8.60;99.90;;;;;;5051735;28;20017;-91
2023/03/11 00:51:13;;;;;;;7.30;4.15;;;8.70;99.90;;;;;;5051040;28;20029;-91
2023/03/11 00:53:39;;;;;;;7.38;3.63;;;8.60;99.90;;;;;;5051755;28;20064;-91
2023/03/11 00:56:13;;;;;;;6.93;3.75;;;8.60;99.90;;;;;;5051634;28;20067;-91
2023/03/11 00:58:40;;;;;;;5.18;3.22;;;8.70;99.90;;;;;;5051583;28;20037;-92
2023/03/11 01:01:07;;;;;;;7.28;3.40;;;8.70;99.90;;;;;;5051351;28;20028;-91
2023/03/11 01:03:33;;;;;;;6.97;3.50;;;8.60;99.90;;;;;;5051621;28;20062;-91
2023/03/11 01:05:58;;;;;;;5.53;3.25;;;8.70;99.90;;;;;;5051501;28;20508;-91
2023/03/11 01:08:25;;;;;;;8.05;3.83;;;8.70;99.90;;;;;;5051449;28;20029;-91
2023/03/11 01:10:52;;;;;;;10.25;3.78;;;8.70;99.90;;;;;;5051572;28;20017;-91
2023/03/11 01:13:18;;;;;;;6.72;3.53;;;8.70;99.90;;;;;;5051457;27;20036;-91
2023/03/11 01:15:44;;;;;;;5.15;3.47;;;8.60;99.90;;;;;;5050920;28;20037;-91
2023/03/11 01:18:09;;;;;;;4.82;3.20;;;8.60;99.90;;;;;;5051182;28;20402;-91
2023/03/11 01:20:37;;;;;;;5.95;3.40;;;8.50;99.90;;;;;;5051424;28;20086;-91
2023/03/11 01:23:02;;;;;;;7.90;4.38;;;8.70;99.90;;;;;;5051324;28;20032;-91
2023/03/11 01:25:28;;;;;;;5.95;3.30;;;8.60;99.90;;;;;;5051268;28;20021;-91
2023/03/11 01:27:54;;;;;;;6.50;3.22;;;8.40;99.90;;;;;;5051229;28;20326;-91
2023/03/11 01:30:22;;;;;;;6.55;3.40;;;8.30;99.90;;;;;;5050813;28;20082;-91
2023/03/11 01:32:49;;;;;;;5.35;3.45;;;8.30;99.90;;;;;;5051083;28;20021;-91
2023/03/11 01:35:16;;;;;;;6.85;3.70;;;8.40;99.90;;;;;;5049869;28;20040;-92
2023/03/11 01:37:42;;;;;;;7.10;4.22;;;8.40;99.90;;;;;;5051051;28;20037;-92
2023/03/11 01:40:32;;;;;;;7.43;4.40;;;8.40;99.90;;;;;;5051048;28;20034;-92
2023/03/11 01:42:59;;;;;;;7.15;3.63;;;8.50;99.90;;;;;;5050518;28;20085;-91
2023/03/11 01:45:40;;;;;;;9.13;5.10;;;8.60;99.90;;;;;;5050896;28;20088;-91
2023/03/11 01:48:07;;;;;;;6.95;4.28;;;8.40;99.90;;;;;;5050824;28;20021;-91
2023/03/11 01:50:43;;;;;;;6.90;3.45;;;8.40;99.90;;;;;;5050982;28;20033;-91
2023/03/11 01:53:10;;;;;;;4.90;3.30;;;8.50;99.90;;;;;;5050830;28;20073;-91
2023/03/11 01:55:36;;;;;;;6.38;3.60;;;8.50;99.90;;;;;;5050750;28;20032;-91
2023/03/11 01:58:07;;;;;;;5.95;3.78;;;8.50;99.90;;;;;;5050461;28;20430;-91
2023/03/11 02:00:34;;;;;;;6.97;4.43;;;8.50;99.90;;;;;;5050726;28;20021;-91
2023/03/11 02:03:06;;;;;;;8.02;4.18;;;8.40;99.90;;;;;;5050725;28;20040;-91
2023/03/11 02:05:32;;;;;;;7.82;4.18;;;8.30;99.90;;;;;;5050463;27;20479;-91
2023/03/11 02:07:58;;;;;;;7.32;4.00;;;8.30;99.90;;;;;;5050672;28;20428;-91
2023/03/11 02:10:25;;;;;;;6.75;4.53;;;8.40;99.90;;;;;;5050644;28;20032;-91
2023/03/11 02:12:51;;;;;;;6.60;4.40;;;8.40;99.90;;;;;;5049967;27;20044;-91
2023/03/11 02:15:17;;;;;;;6.07;4.05;;;8.50;99.90;;;;;;5050402;28;20033;-91
2023/03/11 02:17:43;;;;;;;6.55;4.18;;;8.50;99.90;;;;;;5050194;28;20140;-90
2023/03/11 02:20:21;;;;;;;6.63;4.07;;;8.50;99.90;;;;;;5050351;28;20025;-91
2023/03/11 02:22:48;;;;;;;7.07;4.40;;;8.50;99.90;;;;;;5050230;28;20024;-91
2023/03/11 02:25:32;;;;;;;6.80;3.88;;;8.50;99.90;;;;;;5050402;28;20551;-92
2023/03/11 02:27:59;;;;;;;4.97;3.28;;;8.60;99.90;;;;;;5049790;28;20025;-91
2023/03/11 02:30:27;;;;;;;3.38;2.30;;;8.60;99.90;;;;;;5050357;28;20209;-91
2023/03/11 02:32:54;;;;;;;5.93;3.92;;;8.70;99.90;;;;;;5050326;28;20078;-91
2023/03/11 02:35:20;;;;;;;5.28;3.70;;;8.50;99.90;;;;;;5050188;28;20061;-91
2023/03/11 02:37:47;;;;;;;6.30;3.90;;;8.50;99.90;;;;;;5050035;28;20036;-91
2023/03/11 02:40:22;;;;;;;8.85;3.90;;;8.70;99.90;;;;;;5050133;28;20089;-91
2023/03/11 02:42:51;;;;;;;6.85;4.00;;;8.80;99.90;;;;;;5049646;28;20033;-91
2023/03/11 02:45:21;;;;;;;7.03;4.47;;;8.70;99.90;;;;;;5049855;28;20017;-91
2023/03/11 02:47:47;;;;;;;6.50;3.80;;;8.70;99.90;;;;;;5049965;28;20174;-91
2023/03/11 02:50:15;;;;;;;4.78;3.20;;;8.80;99.90;;;;;;5050002;28;20044;-92
2023/03/11 02:52:41;;;;;;;4.57;3.58;;;8.80;99.90;;;;;;5049884;28;20123;-91
2023/03/11 02:55:08;;;;;;;5.78;3.80;;;8.70;99.90;;;;;;5049893;28;20494;-91
2023/03/11 02:57:34;;;;;;;6.22;4.15;;;8.80;99.90;;;;;;5049744;28;20033;-91
2023/03/11 03:00:07;;;;;;;16.10;8.35;;;8.70;99.90;;;;;;5049853;28;20526;-92
2023/03/11 03:02:33;;;;;;;6.70;4.43;;;8.70;99.90;;;;;;5049742;28;20471;-91
2023/03/11 03:04:58;;;;;;;6.45;4.25;;;8.60;99.90;;;;;;5049708;28;20165;-91
2023/03/11 03:07:24;;;;;;;6.28;4.57;;;8.70;99.90;;;;;;5049936;28;20033;-91
2023/03/11 03:09:50;;;;;;;7.43;4.43;;;8.70;99.90;;;;;;5049222;28;20112;-92
2023/03/11 03:12:15;;;;;;;7.00;4.10;;;8.60;99.90;;;;;;5049501;27;20025;-91
2023/03/11 03:14:41;;;;;;;8.10;4.65;;;8.70;99.90;;;;;;5049054;28;20022;-91
2023/03/11 03:17:06;;;;;;;6.72;3.63;;;8.60;99.90;;;;;;5049343;28;20057;-92
2023/03/11 03:19:32;;;;;;;7.95;4.00;;;8.50;99.90;;;;;;5049545;28;20018;-91
2023/03/11 03:21:57;;;;;;;6.80;4.10;;;8.50;99.90;;;;;;5049606;28;20029;-91
2023/03/11 03:24:23;;;;;;;8.45;5.22;;;8.40;99.90;;;;;;5049218;28;20033;-91
2023/03/11 03:26:49;;;;;;;11.13;6.50;;;8.60;99.90;;;;;;5049396;28;20522;-91
2023/03/11 03:29:14;;;;;;;9.90;5.18;;;8.50;99.90;;;;;;5049431;28;20410;-92
2023/03/11 03:31:40;;;;;;;7.00;4.65;;;8.70;99.90;;;;;;5049387;28;20029;-92
2023/03/11 03:34:05;;;;;;;7.18;4.85;;;8.70;99.90;;;;;;5049333;28;20130;-91
2023/03/11 03:36:31;;;;;;;4.68;3.92;;;8.70;99.90;;;;;;5049369;28;20022;-91
2023/03/11 03:38:58;;;;;;;6.40;4.22;;;8.50;99.90;;;;;;5048987;28;20060;-91
2023/03/11 03:41:24;;;;;;;6.82;4.50;;;8.60;99.90;;;;;;5049277;28;20525;-91
2023/03/11 03:43:50;;;;;;;5.93;3.95;;;8.70;99.90;;;;;;5049388;28;20487;-91
2023/03/11 03:46:15;;;;;;;7.88;4.68;;;8.70;99.90;;;;;;5049199;28;20037;-91
2023/03/11 03:48:41;;;;;;;7.20;4.25;;;8.60;99.90;;;;;;5049047;28;20108;-90
2023/03/11 03:51:09;;;;;;;7.88;4.53;;;8.50;99.90;;;;;;5049209;28;20017;-91
2023/03/11 03:53:36;;;;;;;9.50;5.07;;;8.70;99.90;;;;;;5048717;28;20041;-91
2023/03/11 03:56:06;;;;;;;5.43;4.32;;;8.60;99.90;;;;;;5049066;28;20386;-91
2023/03/11 03:58:32;;;;;;;7.53;4.47;;;8.60;99.90;;;;;;5049126;28;20029;-91
2023/03/11 04:00:59;;;;;;;6.05;4.53;;;8.60;99.90;;;;;;5049079;28;20395;-91
2023/03/11 04:03:26;;;;;;;6.55;4.88;;;8.70;99.90;;;;;;5049152;28;20028;-90
2023/03/11 04:05:51;;;;;;;21.73;10.93;;;8.60;99.90;;;;;;5048957;28;20025;-91
2023/03/11 04:08:17;;;;;;;20.45;9.68;;;8.80;99.90;;;;;;5048646;28;20443;-91
2023/03/11 04:10:43;;;;;;;7.13;4.60;;;8.90;99.90;;;;;;5048986;28;20394;-91
2023/03/11 04:13:09;;;;;;;10.98;5.57;;;8.80;99.90;;;;;;5048813;27;20029;-91
2023/03/11 04:15:38;;;;;;;10.60;5.28;;;8.90;99.90;;;;;;5048797;28;20395;-91
2023/03/11 04:18:03;;;;;;;2.90;1.60;;;8.80;99.90;;;;;;5048681;28;20439;-91
2023/03/11 04:20:29;;;;;;;2.92;1.13;;;9.10;99.90;;;;;;5048880;28;20028;-91
2023/03/11 04:22:54;;;;;;;5.75;4.30;;;9.30;99.90;;;;;;5048452;28;20044;-91
2023/03/11 04:25:20;;;;;;;9.63;4.75;;;9.00;99.90;;;;;;5048781;28;20029;-91
2023/03/11 04:27:48;;;;;;;7.07;4.35;;;8.90;99.90;;;;;;5051173;28;20548;-91
2023/03/11 04:30:14;;;;;;;7.63;4.65;;;8.90;99.90;;;;;;5052259;28;20240;-91
2023/03/11 04:32:40;;;;;;;12.45;6.28;;;8.80;99.90;;;;;;5052039;28;20025;-91
2023/03/11 04:35:06;;;;;;;8.48;4.43;;;8.90;99.90;;;;;;5052132;28;20077;-92
2023/03/11 04:37:32;;;;;;;5.22;4.22;;;8.80;99.90;;;;;;5051561;28;20021;-91
2023/03/11 04:39:58;;;;;;;8.10;4.18;;;8.80;99.90;;;;;;5052044;28;20040;-91
2023/03/11 04:42:24;;;;;;;7.38;5.57;;;8.80;99.90;;;;;;5051997;28;20028;-91
2023/03/11 04:44:49;;;;;;;6.57;3.95;;;8.90;99.90;;;;;;5051840;28;20029;-91
2023/03/11 04:47:15;;;;;;;6.43;4.25;;;8.70;99.90;;;;;;5051971;28;20096;-91
2023/03/11 04:49:41;;;;;;;6.13;4.25;;;8.80;99.90;;;;;;5051808;28;20482;-91
2023/03/11 04:52:06;;;;;;;5.43;3.90;;;8.80;99.90;;;;;;5051406;28;20040;-91
2023/03/11 04:54:32;;;;;;;6.32;4.18;;;8.70;99.90;;;;;;5051597;28;20068;-91
2023/03/11 04:56:58;;;;;;;8.07;4.00;;;8.70;99.90;;;;;;5051715;28;20024;-91
2023/03/11 04:59:23;;;;;;;7.03;4.30;;;8.60;99.90;;;;;;5051681;28;20064;-91
2023/03/11 05:01:49;;;;;;;6.20;4.53;;;8.60;99.90;;;;;;5051648;28;20457;-91
2023/03/11 05:04:15;;;;;;;7.45;4.18;;;8.60;99.90;;;;;;5051584;28;20072;-92
2023/03/11 05:06:41;;;;;;;6.10;4.68;;;8.50;99.90;;;;;;5051201;28;20024;-91
2023/03/11 05:09:06;;;;;;;6.05;4.65;;;8.60;99.90;;;;;;5051499;28;20033;-91
2023/03/11 05:11:32;;;;;;;6.40;4.43;;;8.50;99.90;;;;;;5051284;27;20040;-92
2023/03/11 05:13:58;;;;;;;4.85;4.05;;;8.50;99.90;;;;;;5051498;28;20025;-91
2023/03/11 05:16:23;;;;;;;6.47;4.18;;;8.50;99.90;;;;;;5051228;28;20056;-91
2023/03/11 05:18:49;;;;;;;7.35;5.22;;;8.60;99.90;;;;;;5051157;28;20037;-91
2023/03/11 05:21:15;;;;;;;6.60;5.60;;;8.70;99.90;;;;;;5051104;28;20100;-92
2023/03/11 05:23:41;;;;;;;10.00;8.57;;;8.80;99.90;;;;;;5051269;28;20033;-92
2023/03/11 05:26:07;;;;;;;10.82;9.70;;;8.90;99.90;;;;;;5051312;28;20029;-92
2023/03/11 05:28:32;;;;;;;8.80;7.05;;;8.90;99.90;;;;;;5051362;28;20120;-91
2023/03/11 05:30:58;;;;;;;7.13;6.22;;;8.80;99.90;;;;;;5051094;28;20049;-91
2023/03/11 05:33:23;;;;;;;9.05;6.03;;;8.80;99.90;;;;;;5051208;28;20033;-91
2023/03/11 05:35:50;;;;;;;12.88;8.27;;;8.80;99.90;;;;;;5050684;28;20444;-91
2023/03/11 05:38:16;;;;;;;12.77;7.57;;;8.90;99.90;;;;;;5050708;28;20410;-91
2023/03/11 05:40:42;;;;;;;9.77;6.40;;;8.90;99.90;;;;;;5051041;28;20029;-91
2023/03/11 05:43:07;;;;;;;8.85;6.38;;;8.90;99.90;;;;;;5050902;28;20033;-91
2023/03/11 05:45:33;;;;;;;10.27;6.60;;;8.90;99.90;;;;;;5050951;28;20028;-91
2023/03/11 05:47:59;;;;;;;8.23;5.97;;;8.90;99.90;;;;;;5050934;28;20029;-91
2023/03/11 05:50:24;;;;;;;7.97;6.00;;;8.80;99.90;;;;;;5050694;28;20021;-91
2023/03/11 05:52:50;;;;;;;7.70;5.63;;;8.70;99.90;;;;;;5050865;28;20025;-92
2023/03/11 05:55:16;;;;;;;6.05;5.45;;;8.70;99.90;;;;;;5050702;28;20075;-91
2023/03/11 05:57:41;;;;;;;8.02;6.35;;;8.90;99.90;;;;;;5050847;28;20055;-91
2023/03/11 06:00:11;;;;;;;7.10;6.40;;;8.80;99.90;;;;;;5050813;28;20021;-91
2023/03/11 06:02:39;;;;;;;7.18;6.32;;;8.70;99.90;;;;;;5049372;28;20513;-91
2023/03/11 06:05:05;;;;;;;7.05;6.35;;;8.60;99.90;;;;;;5050434;28;20017;-91
2023/03/11 06:07:33;;;;;;;8.23;5.78;;;8.60;99.90;;;;;;5050585;28;20104;-92
2023/03/11 06:09:59;;;;;;;7.70;6.35;;;8.80;99.90;;;;;;5050678;28;20402;-91
2023/03/11 06:12:25;;;;;;;7.43;6.63;;;8.60;99.90;;;;;;5050360;27;20021;-91
2023/03/11 06:14:52;;;;;;;7.80;6.22;;;8.70;99.90;;;;;;5050377;28;20033;-91
2023/03/11 06:17:18;;;;;;;7.88;7.07;;;8.70;99.90;;;;;;5050101;28;20128;-91
2023/03/11 06:19:43;;;;;;;8.57;7.03;;;8.70;99.90;;;;;;5050124;28;20158;-91
2023/03/11 06:22:09;;;;;;;10.65;8.35;;;8.70;99.90;;;;;;5050282;28;20025;-92
2023/03/11 06:24:35;;;;;;;7.72;6.90;;;8.90;99.90;;;;;;5050377;28;20029;-91
2023/03/11 06:27:01;;;;;;;8.98;6.90;;;8.90;99.90;;;;;;5050492;28;20104;-91
2023/03/11 06:29:28;;;;;;;5.57;4.80;;;8.80;99.90;;;;;;5050293;28;20036;-91
2023/03/11 06:31:54;;;;;;;6.93;4.10;;;8.70;99.90;;;;;;5050244;28;20100;-91
2023/03/11 06:34:19;;;;;;;3.83;3.42;;;8.80;99.90;;;;;;5049963;28;20431;-91
2023/03/11 06:36:45;;;;;;;4.65;2.65;;;8.90;99.90;;;;;;5050167;28;20039;-90
2023/03/11 06:39:13;;;;;;;3.05;2.08;;;8.80;99.90;;;;;;5050093;28;20118;-91
2023/03/11 06:41:39;;;;;;;3.05;2.42;;;9.00;99.90;;;;;;5050104;28;20482;-91
2023/03/11 06:44:05;;;;;;;2.70;1.98;;;9.00;99.90;;;;;;5049821;28;20036;-91
2023/03/11 06:46:31;;;;;;;2.15;1.85;;;9.00;99.90;;;;;;5050134;28;20017;-92
2023/03/11 06:48:57;;;;;;;3.65;2.00;;;8.80;99.90;;;;;;5048995;28;20025;-91
2023/03/11 06:51:22;;;;;;;2.22;2.00;;;8.80;99.90;;;;;;5049823;28;20048;-91
2023/03/11 06:53:51;;;;;;;2.85;2.47;;;8.80;99.90;;;;;;5049904;28;20060;-92
2023/03/11 06:56:17;;;;;;;2.00;1.77;;;9.10;99.90;;;;;;5049794;28;20106;-91
2023/03/11 06:58:43;;;;;;;1.88;1.67;;;9.00;99.90;;;;;;5049873;28;20124;-91
2023/03/11 07:01:17;;;;;;;5.15;1.60;;;9.10;99.90;;;;;;5049962;28;20056;-91
2023/03/11 07:03:45;;;;;;;1.60;1.30;;;9.10;99.90;;;;;;5049451;28;20029;-91
2023/03/11 07:06:20;;;;;;;2.83;1.83;;;8.90;99.90;;;;;;5049730;28;20025;-91
2023/03/11 07:08:47;;;;;;;3.90;1.80;;;8.80;99.90;;;;;;5049714;28;20025;-91
2023/03/11 07:11:19;;;;;;;3.50;1.70;;;8.80;99.90;;;;;;5049542;27;20025;-91
2023/03/11 07:13:45;;;;;;;3.17;1.60;;;8.90;99.90;;;;;;5049723;28;20386;-91
2023/03/11 07:16:16;;;;;;;1.80;1.70;;;9.00;99.90;;;;;;5049035;28;20048;-92
2023/03/11 07:18:43;;;;;;;2.20;2.00;;;9.00;99.90;;;;;;5049461;28;20045;-91
2023/03/11 07:21:15;;;;;;;2.97;2.00;;;8.90;99.90;;;;;;5049482;28;20117;-91
2023/03/11 07:23:42;;;;;;;2.72;2.00;;;8.90;99.90;;;;;;5049521;28;20047;-91
2023/03/11 07:26:10;;;;;;;2.67;2.00;;;9.00;99.90;;;;;;5049356;28;20025;-92
2023/03/11 07:28:36;;;;;;;2.10;1.90;;;9.10;99.90;;;;;;5049544;28;20036;-92
2023/03/11 07:31:19;;;;;;;2.22;2.03;;;9.10;99.90;;;;;;5049112;28;20025;-91
2023/03/11 07:33:45;;;;;;;2.00;1.90;;;9.00;99.90;;;;;;5049501;28;20083;-91
2023/03/11 07:36:13;;;;;;;1.70;1.58;;;9.20;99.90;;;;;;5049282;28;20479;-91
2023/03/11 07:38:39;;;;;;;3.38;2.08;;;9.20;99.90;;;;;;5049314;28;20444;-91
2023/03/11 07:41:06;;;;;;;2.40;1.90;;;9.30;99.90;;;;;;5049318;28;20029;-91
2023/03/11 07:43:31;;;;;;;1.73;1.63;;;9.40;99.90;;;;;;5049149;28;20475;-91
2023/03/11 07:46:03;;;;;;;1.80;1.70;;;9.40;99.90;;;;;;5049105;28;20104;-91
2023/03/11 07:48:29;;;;;;;3.42;1.95;;;9.40;99.90;;;;;;5049282;28;20502;-92
2023/03/11 07:51:07;;;;;;;1.80;1.70;;;9.50;99.90;;;;;;5049256;28;20040;-92
2023/03/11 07:53:33;;;;;;;3.00;2.10;;;9.50;99.90;;;;;;5049113;28;20028;-92
2023/03/11 07:55:59;;;;;;;2.08;1.92;;;9.70;99.90;;;;;;5049053;28;20025;-91
2023/03/11 07:58:25;;;;;;;3.08;2.17;;;9.70;99.90;;;;;;5049072;28;20033;-91
2023/03/11 08:00:51;;;;;;;2.40;2.20;;;9.70;99.90;;;;;;5049907;28;20033;-92
2023/03/11 08:03:17;;;;;;;2.58;2.38;;;9.70;99.90;;;;;;5052612;28;20054;-91
2023/03/11 08:05:43;;;;;;;2.70;2.50;;;9.70;99.90;;;;;;5052446;28;20101;-90
2023/03/11 08:08:09;;;;;;;2.63;2.42;;;9.80;99.90;;;;;;5052477;28;20044;-91
2023/03/11 08:10:38;;;;;;;3.05;2.75;;;9.90;99.90;;;;;;5052578;28;20479;-92
2023/03/11 08:13:04;;;;;;;2.83;2.63;;;10.00;99.90;;;;;;5052244;27;20029;-91
2023/03/11 08:15:30;;;;;;;2.08;1.98;;;10.10;99.90;;;;;;5051869;28;20017;-92
2023/03/11 08:17:55;;;;;;;2.80;2.60;;;10.20;99.90;;;;;;5052186;28;20101;-91
2023/03/11 08:20:21;;;;;;;1.88;1.77;;;9.90;99.90;;;;;;5052278;28;20033;-91
2023/03/11 08:22:47;;;;;;;2.30;2.10;;;10.00;99.90;;;;;;5052158;28;20025;-92
2023/03/11 08:25:12;;;;;;;2.80;2.60;;;10.10;99.90;;;;;;5052193;28;20055;-92
2023/03/11 08:27:39;;;;;;;4.18;3.50;;;10.00;99.90;;;;;;5052180;28;20372;-92
2023/03/11 08:30:05;;;;;;;4.43;4.03;;;9.90;99.90;;;;;;5051902;28;20570;-91
2023/03/11 08:32:31;;;;;;;3.65;3.03;;;10.00;99.90;;;;;;5052134;28;20014;-91
2023/03/11 08:34:58;;;;;;;3.00;2.70;;;10.10;99.90;;;;;;5052056;28;20036;-91
2023/03/11 08:37:24;;;;;;;3.38;3.08;;;9.70;99.90;;;;;;5052025;28;20379;-91
2023/03/11 08:39:49;;;;;;;3.10;2.80;;;9.90;99.90;;;;;;5051943;28;20021;-92
2023/03/11 08:42:16;;;;;;;4.57;2.60;;;9.90;99.90;;;;;;5051996;28;20063;-92
2023/03/11 08:44:42;;;;;;;2.22;2.13;;;10.10;99.90;;;;;;5051542;28;20028;-92
2023/03/11 08:47:08;;;;;;;2.40;2.20;;;10.20;99.90;;;;;;5051900;28;20025;-92
2023/03/11 08:49:34;;;;;;;2.22;1.92;;;10.10;99.90;;;;;;5051898;28;20020;-92
2023/03/11 08:52:01;;;;;;;2.28;1.70;;;10.00;99.90;;;;;;5051827;28;20029;-91
2023/03/11 08:54:27;;;;;;;3.97;2.65;;;10.30;99.90;;;;;;5051793;28;20104;-91
2023/03/11 08:56:53;;;;;;;3.55;2.22;;;10.40;99.90;;;;;;5051638;28;20033;-91
2023/03/11 08:59:18;;;;;;;2.60;2.40;;;10.50;99.90;;;;;;5051368;28;20078;-92
2023/03/11 09:01:45;;;;;;;2.00;1.90;;;10.20;99.90;;;;;;5051660;28;20477;-92
2023/03/11 09:04:11;;;;;;;1.63;1.52;;;10.60;99.90;;;;;;5051503;28;20082;-91
2023/03/11 09:06:41;;;;;;;2.60;2.22;;;10.60;99.90;;;;;;5051538;28;20025;-92
2023/03/11 09:09:10;;;;;;;1.80;1.70;;;10.50;99.90;;;;;;5051481;28;20025;-91
2023/03/11 09:11:36;;;;;;;2.88;2.10;;;10.70;99.90;;;;;;5051376;27;20021;-91
2023/03/11 09:14:02;;;;;;;2.50;2.25;;;11.00;99.90;;;;;;5050359;28;20025;-92
2023/03/11 09:16:28;;;;;;;2.63;2.42;;;11.10;99.90;;;;;;5051292;28;20049;-92
2023/03/11 09:18:53;;;;;;;1.95;1.80;;;11.00;99.90;;;;;;5051394;28;20052;-92
2023/03/11 09:21:19;;;;;;;2.28;1.73;;;11.30;99.90;;;;;;5051360;28;20017;-92
2023/03/11 09:23:45;;;;;;;2.00;1.90;;;11.30;99.90;;;;;;5051213;28;20576;-92
2023/03/11 09:26:12;;;;;;;2.15;2.00;;;11.30;99.90;;;;;;5051326;28;20475;-91
2023/03/11 09:28:38;;;;;;;2.42;2.17;;;11.20;99.90;;;;;;5050910;28;20376;-92
2023/03/11 09:31:04;;;;;;;2.20;2.00;;;11.30;99.90;;;;;;5051333;28;20073;-91
2023/03/11 09:33:30;;;;;;;2.30;2.10;;;11.30;99.90;;;;;;5051075;28;20455;-92
2023/03/11 09:35:57;;;;;;;2.35;2.15;;;11.50;99.90;;;;;;5051129;28;20100;-91
2023/03/11 09:38:23;;;;;;;2.25;2.00;;;11.50;99.90;;;;;;5051285;28;20144;-91
2023/03/11 09:40:53;;;;;;;1.98;1.83;;;11.10;99.90;;;;;;5051074;28;20483;-92
2023/03/11 09:43:40;;;;;;;2.47;2.28;;;11.10;99.90;;;;;;5050491;28;20025;-91
2023/03/11 09:46:36;;;;;;;1.90;1.80;;;11.30;99.90;;;;;;5050989;28;20028;-91
2023/03/11 09:49:45;;;;;;;1.80;1.70;;;11.20;99.90;;;;;;5071685;28;20599;-91
2023/03/11 09:52:14;;;;;;;3.05;2.40;;;11.40;99.90;;;;;;5071727;28;20021;-91
2023/03/11 09:54:44;;;;;;;2.30;2.10;;;11.00;99.90;;;;;;5071754;28;20483;-91
2023/03/11 09:57:18;;;;;;;2.45;2.25;;;11.00;99.90;;;;;;5071207;28;20040;-91
2023/03/11 09:59:45;;;;;;;3.72;3.42;;;10.90;99.90;;;;;;5071695;28;20047;-92
2023/03/11 10:02:17;;;;;;;2.70;2.50;;;11.00;99.90;;;;;;5071626;28;20024;-92
2023/03/11 10:04:51;;;;;;;2.50;2.30;;;11.10;99.90;;;;;;5071409;28;20021;-92
2023/03/11 10:07:22;;;;;;;2.63;2.42;;;11.40;99.90;;;;;;5071426;28;20033;-92
2023/03/11 10:09:52;;;;;;;3.47;3.08;;;11.60;99.90;;;;;;5071491;28;20028;-92
2023/03/11 10:12:48;;;;;;;3.55;2.92;;;11.80;99.90;;;;;;5070831;28;20123;-91
2023/03/11 10:15:16;;;;;;;3.55;3.25;;;11.70;99.90;;;;;;5071393;28;20109;-93
2023/03/11 10:18:17;;;;;;;3.50;3.20;;;11.90;99.90;;;;;;5071172;28;20045;-92
2023/03/11 10:20:57;;;;;;;3.50;3.20;;;11.80;99.90;;;;;;5071156;28;20059;-92
2023/03/11 10:23:25;;;;;;;3.67;3.38;;;11.70;99.90;;;;;;5070890;28;20029;-92
2023/03/11 10:26:12;;;;;;;4.28;3.95;;;11.60;99.90;;;;;;5059922;28;20044;-92
2023/03/11 10:28:56;;;;;;;4.03;3.72;;;12.00;99.90;;;;;;5049082;28;20461;-92
2023/03/11 10:31:29;;;;;;;4.65;3.80;;;12.20;99.90;;;;;;5050324;28;20059;-91
2023/03/11 10:34:15;;;;;;;4.20;3.80;;;12.30;99.90;;;;;;5050260;28;20356;-92
2023/03/11 10:36:55;;;;;;;3.78;3.47;;;12.30;99.90;;;;;;5050190;28;20041;-92
2023/03/11 10:39:22;;;;;;;2.80;2.60;;;12.50;99.90;;;;;;5049717;28;20486;-92
2023/03/11 10:42:05;;;;;;;2.50;2.30;;;12.30;99.90;;;;;;5050119;28;20024;-92
2023/03/11 10:44:35;;;;;;;2.38;2.20;;;12.40;99.90;;;;;;5050086;28;20039;-92
2023/03/11 10:47:01;;;;;;;2.50;2.30;;;12.30;99.90;;;;;;5050217;28;20061;-92
2023/03/11 10:49:27;;;;;;;2.67;2.47;;;12.20;99.90;;;;;;5050030;28;20064;-92
2023/03/11 10:51:54;;;;;;;3.03;2.83;;;12.70;99.90;;;;;;5050056;28;20029;-92
2023/03/11 10:54:30;;;;;;;2.30;2.10;;;12.90;99.90;;;;;;5049585;28;20021;-92
2023/03/11 10:56:59;;;;;;;2.40;1.90;;;13.50;99.90;;;;;;5049699;27;20021;-92
2023/03/11 10:59:31;;;;;;;1.85;1.75;;;13.50;99.90;;;;;;5049654;28;20607;-92
2023/03/11 11:02:27;;;;;;;2.28;2.17;;;13.40;99.90;;;;;;5049765;28;20048;-91
2023/03/11 11:05:29;;;;;;;2.30;2.10;;;13.60;99.90;;;;;;5051001;27;20090;-92
2023/03/11 11:08:15;;;;;;;1.77;1.67;;;13.70;99.90;;;;;;5070243;28;20064;-92
2023/03/11 11:10:56;;;;;;;2.85;2.65;;;13.50;99.90;;;;;;5070171;28;20056;-92
2023/03/11 11:13:24;;;;;;;2.67;2.47;;;12.90;99.90;;;;;;5070108;28;20031;-91
2023/03/11 11:15:52;;;;;;;3.53;3.22;;;13.60;99.90;;;;;;5070061;28;20031;-92
2023/03/11 11:18:25;;;;;;;3.17;2.97;;;13.70;99.90;;;;;;5070362;28;20494;-92
2023/03/11 11:21:02;;;;;;;3.67;3.38;;;13.80;99.90;;;;;;5070284;28;20055;-92
2023/03/11 11:23:33;;;;;;;3.58;3.28;;;14.10;99.90;;;;;;5069887;28;20047;-92
2023/03/11 11:26:03;;;;;;;3.05;2.85;;;14.40;99.90;;;;;;5070287;28;20016;-92
2023/03/11 11:28:30;;;;;;;2.67;2.47;;;15.10;99.90;;;;;;5070266;28;20032;-92
2023/03/11 11:31:17;;;;;;;3.20;2.90;;;15.30;99.90;;;;;;5070297;28;20051;-91
2023/03/11 11:33:54;;;;;;;2.33;2.08;;;15.00;99.90;;;;;;5053473;28;20074;-92
2023/03/11 11:36:25;;;;;;;3.03;2.83;;;14.50;99.90;;;;;;5072484;28;20032;-92
2023/03/11 11:38:53;;;;;;;3.13;2.92;;;14.10;99.90;;;;;;5073961;28;20040;-92
2023/03/11 11:41:24;;;;;;;3.08;2.78;;;13.70;99.90;;;;;;5074335;28;20035;-92
2023/03/11 11:43:53;;;;;;;3.53;3.22;;;13.80;99.90;;;;;;5059808;28;20037;-92
2023/03/11 11:46:43;;;;;;;3.03;2.80;;;13.80;99.90;;;;;;5052925;28;20104;-92
2023/03/11 11:49:28;;;;;;;3.38;3.08;;;13.80;99.90;;;;;;5052819;28;20020;-92
2023/03/11 11:52:19;;;;;;;3.63;3.05;;;14.10;99.90;;;;;;5052524;28;20398;-92
2023/03/11 11:54:57;;;;;;;3.35;3.08;;;13.90;99.90;;;;;;5052733;28;20104;-93
2023/03/11 11:57:23;;;;;;;5.70;4.18;;;14.20;99.90;;;;;;5052579;28;20029;-92
2023/03/11 11:59:49;;;;;;;4.78;4.38;;;14.40;99.90;;;;;;5052763;28;20027;-93
2023/03/11 12:02:17;;;;;;;3.90;3.60;;;14.40;99.90;;;;;;5052796;28;20112;-93
2023/03/11 12:04:55;;;;;;;5.90;5.40;;;14.50;99.90;;;;;;5052525;28;20050;-92
2023/03/11 12:07:47;;;;;;;4.88;4.38;;;14.20;99.90;;;;;;5052263;28;20025;-92
2023/03/11 12:10:33;;;;;;;4.10;3.80;;;14.70;99.90;;;;;;5052526;28;20022;-92
2023/03/11 12:13:13;;;;;;;4.45;4.15;;;14.70;99.90;;;;;;5052329;27;20495;-92
2023/03/11 12:15:48;;;;;;;4.95;4.55;;;14.40;99.90;;;;;;5052468;28;20085;-92
2023/03/11 12:18:33;;;;;;;4.65;4.28;;;13.70;99.90;;;;;;5052428;28;20419;-93
2023/03/11 12:21:03;;;;;;;4.60;4.18;;;13.60;99.90;;;;;;5052037;28;20509;-92
2023/03/11 12:23:39;;;;;;;4.72;4.32;;;13.20;99.90;;;;;;5052319;28;20025;-93
2023/03/11 12:26:21;;;;;;;4.40;4.10;;;13.00;99.90;;;;;;5052323;28;20077;-92
2023/03/11 12:28:47;;;;;;;5.35;4.85;;;13.00;99.90;;;;;;5052252;28;20550;-92
2023/03/11 12:31:13;;;;;;;5.50;4.90;;;12.90;99.90;;;;;;5052143;28;20029;-92
2023/03/11 12:33:40;;;;;;;6.07;5.47;;;12.90;99.90;;;;;;5052153;28;20033;-93
2023/03/11 12:36:18;;;;;;;5.93;5.40;;;13.10;99.90;;;;;;5051819;28;20032;-92
2023/03/11 12:38:48;;;;;;;5.65;5.15;;;13.10;99.90;;;;;;5052120;28;20440;-92
2023/03/11 12:41:14;;;;;;;5.88;5.38;;;13.10;99.90;;;;;;5052027;28;20029;-93
2023/03/11 12:43:39;;;;;;;6.00;5.50;;;12.90;99.90;;;;;;5051875;28;20029;-92
2023/03/11 12:46:07;;;;;;;6.38;5.88;;;13.20;99.90;;;;;;5051928;28;20478;-92
2023/03/11 12:48:45;;;;;;;5.60;5.20;;;13.30;99.90;;;;;;5050867;28;20029;-92
2023/03/11 12:51:25;;;;;;;6.45;5.85;;;13.30;99.90;;;;;;5051553;28;20031;-92
2023/03/11 12:53:55;;;;;;;5.10;4.60;;;13.10;99.90;;;;;;5051810;28;20068;-93
2023/03/11 12:56:41;;;;;;;5.00;4.60;;;13.10;99.90;;;;;;5051881;28;20025;-93
2023/03/11 12:59:09;;;;;;;5.18;4.20;;;13.50;99.90;;;;;;5051745;28;20498;-93
2023/03/11 13:02:00;;;;;;;6.28;5.78;;;13.20;99.90;;;;;;5051753;28;20509;-93
2023/03/11 13:04:56;;;;;;;5.15;4.75;;;12.90;99.90;;;;;;5051374;28;20523;-92